sensor_id;sensor_type;location;lat;lon;timestamp;P1;durP1;ratioP1;P2;durP2;ratioP2
10467;SDS011;5281;48.878;9.394;2023-06-10T00:02:21;4.22;;;3.83;;
10467;SDS011;5281;48.878;9.394;2023-06-10T00:04:49;4.68;;;3.70;;
10467;SDS011;5281;48.878;9.394;2023-06-10T00:07:16;6.38;;;3.83;;
10467;SDS011;5281;48.878;9.394;2023-06-10T00:09:44;4.25;;;3.85;;
10467;SDS011;5281;48.878;9.394;2023-06-10T00:12:11;4.03;;;3.63;;
10467;SDS011;5281;48.878;9.394;2023-06-10T00:14:38;4.78;;;4.10;;
10467;SDS011;5281;48.878;9.394;2023-06-10T00:17:06;5.88;;;3.70;;
10467;SDS011;5281;48.878;9.394;2023-06-10T00:19:35;5.30;;;4.05;;
10467;SDS011;5281;48.878;9.394;2023-06-10T00:22:02;4.93;;;3.95;;
10467;SDS011;5281;48.878;9.394;2023-06-10T00:24:29;4.28;;;3.88;;
10467;SDS011;5281;48.878;9.394;2023-06-10T00:26:57;5.30;;;4.32;;
10467;SDS011;5281;48.878;9.394;2023-06-10T00:29:24;7.00;;;4.18;;
10467;SDS011;5281;48.878;9.394;2023-06-10T00:31:51;3.92;;;3.45;;
10467;SDS011;5281;48.878;9.394;2023-06-10T00:34:18;4.45;;;3.97;;
10467;SDS011;5281;48.878;9.394;2023-06-10T00:36:45;4.22;;;3.83;;
10467;SDS011;5281;48.878;9.394;2023-06-10T00:39:12;4.20;;;3.80;;
10467;SDS011;5281;48.878;9.394;2023-06-10T00:41:39;4.35;;;3.95;;
10467;SDS011;5281;48.878;9.394;2023-06-10T00:44:07;4.65;;;3.60;;
10467;SDS011;5281;48.878;9.394;2023-06-10T00:46:34;3.90;;;3.58;;
10467;SDS011;5281;48.878;9.394;2023-06-10T00:49:02;4.40;;;4.00;;
10467;SDS011;5281;48.878;9.394;2023-06-10T00:51:29;4.32;;;3.33;;
10467;SDS011;5281;48.878;9.394;2023-06-10T00:53:56;3.90;;;3.45;;
10467;SDS011;5281;48.878;9.394;2023-06-10T00:56:23;4.50;;;4.10;;
10467;SDS011;5281;48.878;9.394;2023-06-10T00:58:50;4.22;;;3.83;;
10467;SDS011;5281;48.878;9.394;2023-06-10T01:01:18;3.67;;;3.38;;
10467;SDS011;5281;48.878;9.394;2023-06-10T01:03:45;4.05;;;3.60;;
10467;SDS011;5281;48.878;9.394;2023-06-10T01:06:14;5.05;;;3.42;;
10467;SDS011;5281;48.878;9.394;2023-06-10T01:08:53;4.15;;;3.30;;
10467;SDS011;5281;48.878;9.394;2023-06-10T01:11:25;4.03;;;3.63;;
10467;SDS011;5281;48.878;9.394;2023-06-10T01:13:58;3.70;;;3.40;;
10467;SDS011;5281;48.878;9.394;2023-06-10T01:16:27;4.63;;;4.22;;
10467;SDS011;5281;48.878;9.394;2023-06-10T01:18:54;3.80;;;3.50;;
10467;SDS011;5281;48.878;9.394;2023-06-10T01:21:23;4.80;;;4.05;;
10467;SDS011;5281;48.878;9.394;2023-06-10T01:23:52;4.32;;;3.60;;
10467;SDS011;5281;48.878;9.394;2023-06-10T01:26:21;3.75;;;3.45;;
10467;SDS011;5281;48.878;9.394;2023-06-10T01:28:51;4.13;;;3.72;;
10467;SDS011;5281;48.878;9.394;2023-06-10T01:31:25;4.20;;;3.80;;
10467;SDS011;5281;48.878;9.394;2023-06-10T01:34:01;4.40;;;3.78;;
10467;SDS011;5281;48.878;9.394;2023-06-10T01:36:34;5.10;;;4.03;;
10467;SDS011;5281;48.878;9.394;2023-06-10T01:39:02;4.80;;;3.88;;
10467;SDS011;5281;48.878;9.394;2023-06-10T01:41:31;4.40;;;4.00;;
10467;SDS011;5281;48.878;9.394;2023-06-10T01:43:58;4.10;;;3.70;;
10467;SDS011;5281;48.878;9.394;2023-06-10T01:46:25;3.55;;;3.25;;
10467;SDS011;5281;48.878;9.394;2023-06-10T01:48:52;5.28;;;3.45;;
10467;SDS011;5281;48.878;9.394;2023-06-10T01:51:19;3.88;;;3.50;;
10467;SDS011;5281;48.878;9.394;2023-06-10T01:53:47;5.07;;;3.60;;
10467;SDS011;5281;48.878;9.394;2023-06-10T01:56:14;4.65;;;3.97;;
10467;SDS011;5281;48.878;9.394;2023-06-10T01:58:44;4.93;;;3.40;;
10467;SDS011;5281;48.878;9.394;2023-06-10T02:01:11;3.85;;;3.55;;
10467;SDS011;5281;48.878;9.394;2023-06-10T02:03:38;5.15;;;3.60;;
10467;SDS011;5281;48.878;9.394;2023-06-10T02:06:05;4.97;;;3.47;;
10467;SDS011;5281;48.878;9.394;2023-06-10T02:08:32;4.15;;;3.75;;
10467;SDS011;5281;48.878;9.394;2023-06-10T02:11:00;3.92;;;3.53;;
10467;SDS011;5281;48.878;9.394;2023-06-10T02:13:27;4.07;;;3.50;;
10467;SDS011;5281;48.878;9.394;2023-06-10T02:15:54;4.32;;;3.50;;
10467;SDS011;5281;48.878;9.394;2023-06-10T02:18:21;3.60;;;3.30;;
10467;SDS011;5281;48.878;9.394;2023-06-10T02:20:48;4.18;;;3.40;;
10467;SDS011;5281;48.878;9.394;2023-06-10T02:23:15;5.97;;;3.65;;
10467;SDS011;5281;48.878;9.394;2023-06-10T02:25:42;4.50;;;3.38;;
10467;SDS011;5281;48.878;9.394;2023-06-10T02:28:10;3.83;;;3.42;;
10467;SDS011;5281;48.878;9.394;2023-06-10T02:30:38;4.10;;;3.65;;
10467;SDS011;5281;48.878;9.394;2023-06-10T02:33:06;3.90;;;3.50;;
10467;SDS011;5281;48.878;9.394;2023-06-10T02:35:35;4.70;;;3.65;;
10467;SDS011;5281;48.878;9.394;2023-06-10T02:38:02;3.40;;;3.08;;
10467;SDS011;5281;48.878;9.394;2023-06-10T02:40:29;4.80;;;3.67;;
10467;SDS011;5281;48.878;9.394;2023-06-10T02:42:56;3.58;;;3.28;;
10467;SDS011;5281;48.878;9.394;2023-06-10T02:45:24;3.92;;;3.47;;
10467;SDS011;5281;48.878;9.394;2023-06-10T02:47:51;4.10;;;3.70;;
10467;SDS011;5281;48.878;9.394;2023-06-10T02:50:18;4.53;;;3.40;;
10467;SDS011;5281;48.878;9.394;2023-06-10T02:52:45;3.70;;;3.40;;
10467;SDS011;5281;48.878;9.394;2023-06-10T02:55:12;3.97;;;3.63;;
10467;SDS011;5281;48.878;9.394;2023-06-10T02:57:38;3.90;;;3.50;;
10467;SDS011;5281;48.878;9.394;2023-06-10T03:00:06;3.95;;;3.55;;
10467;SDS011;5281;48.878;9.394;2023-06-10T03:02:37;4.40;;;3.17;;
10467;SDS011;5281;48.878;9.394;2023-06-10T03:05:04;3.20;;;2.90;;
10467;SDS011;5281;48.878;9.394;2023-06-10T03:07:34;3.30;;;3.00;;
10467;SDS011;5281;48.878;9.394;2023-06-10T03:10:02;4.07;;;3.67;;
10467;SDS011;5281;48.878;9.394;2023-06-10T03:12:29;3.53;;;3.22;;
10467;SDS011;5281;48.878;9.394;2023-06-10T03:14:56;5.88;;;3.78;;
10467;SDS011;5281;48.878;9.394;2023-06-10T03:17:23;3.85;;;3.40;;
10467;SDS011;5281;48.878;9.394;2023-06-10T03:19:51;3.90;;;3.45;;
10467;SDS011;5281;48.878;9.394;2023-06-10T03:22:18;3.38;;;3.10;;
10467;SDS011;5281;48.878;9.394;2023-06-10T03:24:45;4.10;;;3.58;;
10467;SDS011;5281;48.878;9.394;2023-06-10T03:27:15;3.67;;;3.20;;
10467;SDS011;5281;48.878;9.394;2023-06-10T03:29:42;3.75;;;3.30;;
10467;SDS011;5281;48.878;9.394;2023-06-10T03:32:09;3.60;;;3.30;;
10467;SDS011;5281;48.878;9.394;2023-06-10T03:34:36;3.70;;;3.25;;
10467;SDS011;5281;48.878;9.394;2023-06-10T03:37:05;4.38;;;3.35;;
10467;SDS011;5281;48.878;9.394;2023-06-10T03:39:32;4.28;;;3.88;;
10467;SDS011;5281;48.878;9.394;2023-06-10T03:41:59;4.18;;;3.75;;
10467;SDS011;5281;48.878;9.394;2023-06-10T03:44:25;3.78;;;3.45;;
10467;SDS011;5281;48.878;9.394;2023-06-10T03:46:52;3.45;;;3.08;;
10467;SDS011;5281;48.878;9.394;2023-06-10T03:49:19;3.70;;;3.40;;
10467;SDS011;5281;48.878;9.394;2023-06-10T03:51:46;4.65;;;3.53;;
10467;SDS011;5281;48.878;9.394;2023-06-10T03:54:15;3.75;;;3.45;;
10467;SDS011;5281;48.878;9.394;2023-06-10T03:56:42;4.30;;;3.50;;
10467;SDS011;5281;48.878;9.394;2023-06-10T03:59:09;5.18;;;3.50;;
10467;SDS011;5281;48.878;9.394;2023-06-10T04:01:35;3.78;;;3.47;;
10467;SDS011;5281;48.878;9.394;2023-06-10T04:04:06;3.80;;;3.50;;
10467;SDS011;5281;48.878;9.394;2023-06-10T04:06:33;3.42;;;3.13;;
10467;SDS011;5281;48.878;9.394;2023-06-10T04:08:59;4.10;;;3.70;;
10467;SDS011;5281;48.878;9.394;2023-06-10T04:11:29;3.85;;;3.53;;
10467;SDS011;5281;48.878;9.394;2023-06-10T04:13:57;5.78;;;3.15;;
10467;SDS011;5281;48.878;9.394;2023-06-10T04:16:24;4.15;;;3.70;;
10467;SDS011;5281;48.878;9.394;2023-06-10T04:18:51;3.95;;;3.58;;
10467;SDS011;5281;48.878;9.394;2023-06-10T04:21:18;4.03;;;3.53;;
10467;SDS011;5281;48.878;9.394;2023-06-10T04:23:45;6.75;;;3.85;;
10467;SDS011;5281;48.878;9.394;2023-06-10T04:26:11;5.25;;;3.70;;
10467;SDS011;5281;48.878;9.394;2023-06-10T04:28:39;5.75;;;3.83;;
10467;SDS011;5281;48.878;9.394;2023-06-10T04:31:08;3.78;;;3.47;;
10467;SDS011;5281;48.878;9.394;2023-06-10T04:33:35;5.70;;;3.90;;
10467;SDS011;5281;48.878;9.394;2023-06-10T04:36:02;4.18;;;3.67;;
10467;SDS011;5281;48.878;9.394;2023-06-10T04:38:31;5.65;;;4.32;;
10467;SDS011;5281;48.878;9.394;2023-06-10T04:40:58;6.05;;;4.80;;
10467;SDS011;5281;48.878;9.394;2023-06-10T04:43:25;4.57;;;4.05;;
10467;SDS011;5281;48.878;9.394;2023-06-10T04:45:54;6.53;;;4.00;;
10467;SDS011;5281;48.878;9.394;2023-06-10T04:48:21;5.60;;;3.97;;
10467;SDS011;5281;48.878;9.394;2023-06-10T04:50:49;4.53;;;3.60;;
10467;SDS011;5281;48.878;9.394;2023-06-10T04:53:16;4.30;;;3.90;;
10467;SDS011;5281;48.878;9.394;2023-06-10T04:55:43;3.83;;;3.13;;
10467;SDS011;5281;48.878;9.394;2023-06-10T04:58:10;4.45;;;3.15;;
10467;SDS011;5281;48.878;9.394;2023-06-10T05:00:37;3.90;;;3.20;;
10467;SDS011;5281;48.878;9.394;2023-06-10T05:03:05;5.03;;;3.42;;
10467;SDS011;5281;48.878;9.394;2023-06-10T05:05:32;6.60;;;3.28;;
10467;SDS011;5281;48.878;9.394;2023-06-10T05:07:59;3.20;;;2.90;;
10467;SDS011;5281;48.878;9.394;2023-06-10T05:10:25;3.50;;;3.20;;
10467;SDS011;5281;48.878;9.394;2023-06-10T05:12:56;4.85;;;3.55;;
10467;SDS011;5281;48.878;9.394;2023-06-10T05:15:23;3.60;;;3.10;;
10467;SDS011;5281;48.878;9.394;2023-06-10T05:17:50;3.40;;;3.10;;
10467;SDS011;5281;48.878;9.394;2023-06-10T05:20:18;3.35;;;3.03;;
10467;SDS011;5281;48.878;9.394;2023-06-10T05:22:45;3.60;;;3.30;;
10467;SDS011;5281;48.878;9.394;2023-06-10T05:25:12;5.63;;;3.25;;
10467;SDS011;5281;48.878;9.394;2023-06-10T05:27:38;4.65;;;2.95;;
10467;SDS011;5281;48.878;9.394;2023-06-10T05:30:07;4.75;;;3.00;;
10467;SDS011;5281;48.878;9.394;2023-06-10T05:32:36;4.68;;;3.00;;
10467;SDS011;5281;48.878;9.394;2023-06-10T05:35:03;3.85;;;2.90;;
10467;SDS011;5281;48.878;9.394;2023-06-10T05:37:32;3.05;;;2.75;;
10467;SDS011;5281;48.878;9.394;2023-06-10T05:40:00;4.75;;;2.90;;
10467;SDS011;5281;48.878;9.394;2023-06-10T05:42:26;6.15;;;2.97;;
10467;SDS011;5281;48.878;9.394;2023-06-10T05:44:53;3.63;;;3.22;;
10467;SDS011;5281;48.878;9.394;2023-06-10T05:47:20;3.53;;;2.80;;
10467;SDS011;5281;48.878;9.394;2023-06-10T05:49:47;4.95;;;2.85;;
10467;SDS011;5281;48.878;9.394;2023-06-10T05:52:15;3.08;;;2.78;;
10467;SDS011;5281;48.878;9.394;2023-06-10T05:54:43;3.08;;;2.78;;
10467;SDS011;5281;48.878;9.394;2023-06-10T05:57:10;2.88;;;2.67;;
10467;SDS011;5281;48.878;9.394;2023-06-10T05:59:37;5.18;;;2.83;;
10467;SDS011;5281;48.878;9.394;2023-06-10T06:02:04;3.20;;;2.90;;
10467;SDS011;5281;48.878;9.394;2023-06-10T06:04:31;3.22;;;2.92;;
10467;SDS011;5281;48.878;9.394;2023-06-10T06:06:58;4.32;;;2.97;;
10467;SDS011;5281;48.878;9.394;2023-06-10T06:09:25;3.05;;;2.80;;
10467;SDS011;5281;48.878;9.394;2023-06-10T06:11:53;3.10;;;2.83;;
10467;SDS011;5281;48.878;9.394;2023-06-10T06:14:20;3.33;;;3.03;;
10467;SDS011;5281;48.878;9.394;2023-06-10T06:16:46;3.45;;;2.80;;
10467;SDS011;5281;48.878;9.394;2023-06-10T06:19:13;3.58;;;3.25;;
10467;SDS011;5281;48.878;9.394;2023-06-10T06:21:40;4.15;;;2.90;;
10467;SDS011;5281;48.878;9.394;2023-06-10T06:24:07;3.42;;;2.88;;
10467;SDS011;5281;48.878;9.394;2023-06-10T06:26:34;3.80;;;3.20;;
10467;SDS011;5281;48.878;9.394;2023-06-10T06:29:02;2.80;;;2.53;;
10467;SDS011;5281;48.878;9.394;2023-06-10T06:31:29;3.47;;;3.08;;
10467;SDS011;5281;48.878;9.394;2023-06-10T06:33:56;3.00;;;2.70;;
10467;SDS011;5281;48.878;9.394;2023-06-10T06:36:23;3.45;;;2.90;;
10467;SDS011;5281;48.878;9.394;2023-06-10T06:38:50;4.35;;;3.15;;
10467;SDS011;5281;48.878;9.394;2023-06-10T06:41:17;2.72;;;2.53;;
10467;SDS011;5281;48.878;9.394;2023-06-10T06:43:44;3.38;;;2.80;;
10467;SDS011;5281;48.878;9.394;2023-06-10T06:46:13;4.32;;;3.10;;
10467;SDS011;5281;48.878;9.394;2023-06-10T06:48:40;3.05;;;2.75;;
10467;SDS011;5281;48.878;9.394;2023-06-10T06:51:07;2.90;;;2.70;;
10467;SDS011;5281;48.878;9.394;2023-06-10T06:53:34;5.25;;;3.60;;
10467;SDS011;5281;48.878;9.394;2023-06-10T06:56:02;6.63;;;5.88;;
10467;SDS011;5281;48.878;9.394;2023-06-10T06:58:28;4.32;;;2.83;;
10467;SDS011;5281;48.878;9.394;2023-06-10T07:00:55;3.58;;;3.03;;
10467;SDS011;5281;48.878;9.394;2023-06-10T07:03:23;6.57;;;2.78;;
10467;SDS011;5281;48.878;9.394;2023-06-10T07:05:50;3.30;;;3.00;;
10467;SDS011;5281;48.878;9.394;2023-06-10T07:08:17;3.60;;;2.90;;
10467;SDS011;5281;48.878;9.394;2023-06-10T07:10:44;3.47;;;2.67;;
10467;SDS011;5281;48.878;9.394;2023-06-10T07:13:11;3.13;;;2.83;;
10467;SDS011;5281;48.878;9.394;2023-06-10T07:15:38;3.10;;;2.85;;
10467;SDS011;5281;48.878;9.394;2023-06-10T07:18:05;2.95;;;2.60;;
10467;SDS011;5281;48.878;9.394;2023-06-10T07:20:33;2.70;;;2.50;;
10467;SDS011;5281;48.878;9.394;2023-06-10T07:23:00;2.72;;;2.47;;
10467;SDS011;5281;48.878;9.394;2023-06-10T07:25:27;3.03;;;2.50;;
10467;SDS011;5281;48.878;9.394;2023-06-10T07:27:53;3.03;;;2.80;;
10467;SDS011;5281;48.878;9.394;2023-06-10T07:30:20;3.10;;;2.33;;
10467;SDS011;5281;48.878;9.394;2023-06-10T07:32:47;3.03;;;2.72;;
10467;SDS011;5281;48.878;9.394;2023-06-10T07:35:14;2.67;;;2.47;;
10467;SDS011;5281;48.878;9.394;2023-06-10T07:37:42;2.72;;;2.50;;
10467;SDS011;5281;48.878;9.394;2023-06-10T07:40:09;3.25;;;2.65;;
10467;SDS011;5281;48.878;9.394;2023-06-10T07:42:36;5.20;;;2.80;;
10467;SDS011;5281;48.878;9.394;2023-06-10T07:45:03;3.78;;;2.63;;
10467;SDS011;5281;48.878;9.394;2023-06-10T07:47:32;3.30;;;2.78;;
10467;SDS011;5281;48.878;9.394;2023-06-10T07:50:00;2.95;;;2.65;;
10467;SDS011;5281;48.878;9.394;2023-06-10T07:52:27;2.83;;;2.60;;
10467;SDS011;5281;48.878;9.394;2023-06-10T07:54:56;3.20;;;2.60;;
10467;SDS011;5281;48.878;9.394;2023-06-10T07:57:22;3.78;;;2.60;;
10467;SDS011;5281;48.878;9.394;2023-06-10T07:59:49;4.35;;;2.60;;
10467;SDS011;5281;48.878;9.394;2023-06-10T08:02:16;5.75;;;2.70;;
10467;SDS011;5281;48.878;9.394;2023-06-10T08:04:43;4.93;;;2.78;;
10467;SDS011;5281;48.878;9.394;2023-06-10T08:07:09;4.10;;;2.80;;
10467;SDS011;5281;48.878;9.394;2023-06-10T08:09:36;3.30;;;3.00;;
10467;SDS011;5281;48.878;9.394;2023-06-10T08:12:05;3.58;;;3.10;;
10467;SDS011;5281;48.878;9.394;2023-06-10T08:14:33;2.97;;;2.72;;
10467;SDS011;5281;48.878;9.394;2023-06-10T08:17:00;3.83;;;2.70;;
10467;SDS011;5281;48.878;9.394;2023-06-10T08:19:26;3.10;;;2.80;;
10467;SDS011;5281;48.878;9.394;2023-06-10T08:21:53;4.63;;;3.00;;
10467;SDS011;5281;48.878;9.394;2023-06-10T08:24:20;3.67;;;2.80;;
10467;SDS011;5281;48.878;9.394;2023-06-10T08:26:47;4.60;;;2.60;;
10467;SDS011;5281;48.878;9.394;2023-06-10T08:29:15;3.20;;;2.72;;
10467;SDS011;5281;48.878;9.394;2023-06-10T08:31:42;3.10;;;2.80;;
10467;SDS011;5281;48.878;9.394;2023-06-10T08:34:09;3.05;;;2.70;;
10467;SDS011;5281;48.878;9.394;2023-06-10T08:36:36;6.18;;;2.47;;
10467;SDS011;5281;48.878;9.394;2023-06-10T08:39:03;3.45;;;2.97;;
10467;SDS011;5281;48.878;9.394;2023-06-10T08:41:30;3.25;;;2.95;;
10467;SDS011;5281;48.878;9.394;2023-06-10T08:44:03;6.40;;;3.00;;
10467;SDS011;5281;48.878;9.394;2023-06-10T08:46:35;3.60;;;2.70;;
10467;SDS011;5281;48.878;9.394;2023-06-10T08:49:03;3.97;;;3.08;;
10467;SDS011;5281;48.878;9.394;2023-06-10T08:51:32;3.50;;;3.08;;
10467;SDS011;5281;48.878;9.394;2023-06-10T08:54:01;4.43;;;2.60;;
10467;SDS011;5281;48.878;9.394;2023-06-10T08:56:30;4.00;;;3.22;;
10467;SDS011;5281;48.878;9.394;2023-06-10T08:59:01;4.45;;;3.10;;
10467;SDS011;5281;48.878;9.394;2023-06-10T09:01:28;3.13;;;2.80;;
10467;SDS011;5281;48.878;9.394;2023-06-10T09:03:57;5.07;;;3.10;;
10467;SDS011;5281;48.878;9.394;2023-06-10T09:06:25;4.40;;;3.10;;
10467;SDS011;5281;48.878;9.394;2023-06-10T09:08:53;5.70;;;3.17;;
10467;SDS011;5281;48.878;9.394;2023-06-10T09:11:20;4.47;;;3.30;;
10467;SDS011;5281;48.878;9.394;2023-06-10T09:13:47;3.42;;;3.13;;
10467;SDS011;5281;48.878;9.394;2023-06-10T09:16:13;4.20;;;3.28;;
10467;SDS011;5281;48.878;9.394;2023-06-10T09:18:41;4.18;;;3.40;;
10467;SDS011;5281;48.878;9.394;2023-06-10T09:21:09;5.93;;;3.08;;
10467;SDS011;5281;48.878;9.394;2023-06-10T09:23:37;3.95;;;3.00;;
10467;SDS011;5281;48.878;9.394;2023-06-10T09:26:08;3.72;;;3.42;;
10467;SDS011;5281;48.878;9.394;2023-06-10T09:28:36;4.05;;;3.65;;
10467;SDS011;5281;48.878;9.394;2023-06-10T09:31:04;3.55;;;3.25;;
10467;SDS011;5281;48.878;9.394;2023-06-10T09:33:32;3.97;;;3.30;;
10467;SDS011;5281;48.878;9.394;2023-06-10T09:36:02;4.75;;;3.47;;
10467;SDS011;5281;48.878;9.394;2023-06-10T09:38:31;4.30;;;3.75;;
10467;SDS011;5281;48.878;9.394;2023-06-10T09:40:59;4.57;;;3.10;;
10467;SDS011;5281;48.878;9.394;2023-06-10T09:43:38;3.92;;;3.60;;
10467;SDS011;5281;48.878;9.394;2023-06-10T09:46:15;5.57;;;3.40;;
10467;SDS011;5281;48.878;9.394;2023-06-10T09:48:43;3.85;;;3.45;;
10467;SDS011;5281;48.878;9.394;2023-06-10T09:51:11;3.65;;;3.35;;
10467;SDS011;5281;48.878;9.394;2023-06-10T09:53:39;4.38;;;3.28;;
10467;SDS011;5281;48.878;9.394;2023-06-10T09:56:06;4.80;;;3.30;;
10467;SDS011;5281;48.878;9.394;2023-06-10T09:58:34;5.68;;;3.38;;
10467;SDS011;5281;48.878;9.394;2023-06-10T10:01:04;4.38;;;3.50;;
10467;SDS011;5281;48.878;9.394;2023-06-10T10:03:31;6.07;;;3.65;;
10467;SDS011;5281;48.878;9.394;2023-06-10T10:05:58;3.83;;;3.47;;
10467;SDS011;5281;48.878;9.394;2023-06-10T10:08:25;6.32;;;3.30;;
10467;SDS011;5281;48.878;9.394;2023-06-10T10:10:54;4.75;;;3.47;;
10467;SDS011;5281;48.878;9.394;2023-06-10T10:13:23;4.60;;;3.78;;
10467;SDS011;5281;48.878;9.394;2023-06-10T10:15:52;4.68;;;4.22;;
10467;SDS011;5281;48.878;9.394;2023-06-10T10:18:21;3.75;;;3.45;;
10467;SDS011;5281;48.878;9.394;2023-06-10T10:20:55;3.97;;;3.58;;
10467;SDS011;5281;48.878;9.394;2023-06-10T10:23:24;8.02;;;3.95;;
10467;SDS011;5281;48.878;9.394;2023-06-10T10:25:57;4.25;;;3.83;;
10467;SDS011;5281;48.878;9.394;2023-06-10T10:28:34;3.88;;;3.58;;
10467;SDS011;5281;48.878;9.394;2023-06-10T10:31:07;7.20;;;4.75;;
10467;SDS011;5281;48.878;9.394;2023-06-10T10:33:39;5.45;;;3.28;;
10467;SDS011;5281;48.878;9.394;2023-06-10T10:36:11;3.60;;;3.30;;
10467;SDS011;5281;48.878;9.394;2023-06-10T10:38:39;3.28;;;2.90;;
10467;SDS011;5281;48.878;9.394;2023-06-10T10:41:09;3.70;;;3.22;;
10467;SDS011;5281;48.878;9.394;2023-06-10T10:43:36;3.70;;;3.35;;
10467;SDS011;5281;48.878;9.394;2023-06-10T10:46:11;4.38;;;3.97;;
10467;SDS011;5281;48.878;9.394;2023-06-10T10:48:38;5.85;;;3.35;;
10467;SDS011;5281;48.878;9.394;2023-06-10T10:51:06;3.60;;;3.28;;
10467;SDS011;5281;48.878;9.394;2023-06-10T10:53:33;4.32;;;3.50;;
10467;SDS011;5281;48.878;9.394;2023-06-10T10:56:00;4.15;;;3.40;;
10467;SDS011;5281;48.878;9.394;2023-06-10T10:58:34;7.65;;;5.32;;
10467;SDS011;5281;48.878;9.394;2023-06-10T11:01:09;4.65;;;3.95;;
10467;SDS011;5281;48.878;9.394;2023-06-10T11:03:41;3.67;;;3.35;;
10467;SDS011;5281;48.878;9.394;2023-06-10T11:06:12;7.82;;;3.42;;
10467;SDS011;5281;48.878;9.394;2023-06-10T11:08:46;3.78;;;3.38;;
10467;SDS011;5281;48.878;9.394;2023-06-10T11:11:18;3.53;;;3.22;;
10467;SDS011;5281;48.878;9.394;2023-06-10T11:14:04;3.03;;;2.75;;
10467;SDS011;5281;48.878;9.394;2023-06-10T11:16:38;3.72;;;3.03;;
10467;SDS011;5281;48.878;9.394;2023-06-10T11:19:06;6.45;;;3.22;;
10467;SDS011;5281;48.878;9.394;2023-06-10T11:21:36;3.80;;;3.00;;
10467;SDS011;5281;48.878;9.394;2023-06-10T11:24:24;4.97;;;2.95;;
10467;SDS011;5281;48.878;9.394;2023-06-10T11:26:51;3.33;;;2.97;;
10467;SDS011;5281;48.878;9.394;2023-06-10T11:29:20;3.33;;;2.75;;
10467;SDS011;5281;48.878;9.394;2023-06-10T11:31:50;4.55;;;3.08;;
10467;SDS011;5281;48.878;9.394;2023-06-10T11:34:23;3.30;;;3.00;;
10467;SDS011;5281;48.878;9.394;2023-06-10T11:36:52;3.40;;;2.72;;
10467;SDS011;5281;48.878;9.394;2023-06-10T11:39:19;3.00;;;2.50;;
10467;SDS011;5281;48.878;9.394;2023-06-10T11:41:48;3.42;;;3.00;;
10467;SDS011;5281;48.878;9.394;2023-06-10T11:44:16;3.28;;;2.50;;
10467;SDS011;5281;48.878;9.394;2023-06-10T11:46:45;2.70;;;2.50;;
10467;SDS011;5281;48.878;9.394;2023-06-10T11:49:14;4.57;;;2.72;;
10467;SDS011;5281;48.878;9.394;2023-06-10T11:51:41;2.72;;;2.53;;
10467;SDS011;5281;48.878;9.394;2023-06-10T11:54:14;2.42;;;2.22;;
10467;SDS011;5281;48.878;9.394;2023-06-10T11:56:41;3.05;;;2.35;;
10467;SDS011;5281;48.878;9.394;2023-06-10T11:59:08;3.30;;;3.00;;
10467;SDS011;5281;48.878;9.394;2023-06-10T12:01:35;3.15;;;2.88;;
10467;SDS011;5281;48.878;9.394;2023-06-10T12:04:05;3.60;;;3.30;;
10467;SDS011;5281;48.878;9.394;2023-06-10T12:06:39;3.05;;;2.75;;
10467;SDS011;5281;48.878;9.394;2023-06-10T12:09:12;2.83;;;2.63;;
10467;SDS011;5281;48.878;9.394;2023-06-10T12:11:40;3.13;;;2.70;;
10467;SDS011;5281;48.878;9.394;2023-06-10T12:14:08;3.00;;;2.70;;
10467;SDS011;5281;48.878;9.394;2023-06-10T12:16:35;3.13;;;2.70;;
10467;SDS011;5281;48.878;9.394;2023-06-10T12:19:02;2.63;;;2.25;;
10467;SDS011;5281;48.878;9.394;2023-06-10T12:21:32;3.90;;;2.55;;
10467;SDS011;5281;48.878;9.394;2023-06-10T12:24:01;3.35;;;2.60;;
10467;SDS011;5281;48.878;9.394;2023-06-10T12:26:39;5.32;;;2.63;;
10467;SDS011;5281;48.878;9.394;2023-06-10T12:29:17;3.35;;;2.67;;
10467;SDS011;5281;48.878;9.394;2023-06-10T12:31:55;3.95;;;2.58;;
10467;SDS011;5281;48.878;9.394;2023-06-10T12:34:34;3.03;;;2.50;;
10467;SDS011;5281;48.878;9.394;2023-06-10T12:37:02;2.65;;;2.45;;
10467;SDS011;5281;48.878;9.394;2023-06-10T12:39:31;3.00;;;2.70;;
10467;SDS011;5281;48.878;9.394;2023-06-10T12:41:58;2.58;;;2.38;;
10467;SDS011;5281;48.878;9.394;2023-06-10T12:44:32;4.20;;;2.35;;
10467;SDS011;5281;48.878;9.394;2023-06-10T12:47:01;3.20;;;2.63;;
10467;SDS011;5281;48.878;9.394;2023-06-10T12:49:34;2.45;;;2.25;;
10467;SDS011;5281;48.878;9.394;2023-06-10T12:52:01;3.95;;;2.60;;
10467;SDS011;5281;48.878;9.394;2023-06-10T12:54:28;3.70;;;2.80;;
10467;SDS011;5281;48.878;9.394;2023-06-10T12:56:55;2.95;;;2.40;;
10467;SDS011;5281;48.878;9.394;2023-06-10T12:59:21;3.05;;;2.47;;
10467;SDS011;5281;48.878;9.394;2023-06-10T13:01:51;2.90;;;2.70;;
10467;SDS011;5281;48.878;9.394;2023-06-10T13:04:18;2.40;;;2.20;;
10467;SDS011;5281;48.878;9.394;2023-06-10T13:06:47;5.32;;;2.88;;
10467;SDS011;5281;48.878;9.394;2023-06-10T13:09:15;3.00;;;2.70;;
10467;SDS011;5281;48.878;9.394;2023-06-10T13:11:42;2.67;;;2.47;;
10467;SDS011;5281;48.878;9.394;2023-06-10T13:14:09;2.83;;;2.50;;
10467;SDS011;5281;48.878;9.394;2023-06-10T13:16:36;2.55;;;2.20;;
10467;SDS011;5281;48.878;9.394;2023-06-10T13:19:04;4.63;;;2.53;;
10467;SDS011;5281;48.878;9.394;2023-06-10T13:21:31;2.50;;;2.30;;
10467;SDS011;5281;48.878;9.394;2023-06-10T13:24:00;2.70;;;2.50;;
10467;SDS011;5281;48.878;9.394;2023-06-10T13:26:26;3.08;;;2.63;;
10467;SDS011;5281;48.878;9.394;2023-06-10T13:28:53;3.25;;;2.90;;
10467;SDS011;5281;48.878;9.394;2023-06-10T13:31:20;3.25;;;2.60;;
10467;SDS011;5281;48.878;9.394;2023-06-10T13:33:47;3.20;;;2.80;;
10467;SDS011;5281;48.878;9.394;2023-06-10T13:36:13;3.35;;;2.83;;
10467;SDS011;5281;48.878;9.394;2023-06-10T13:38:40;2.67;;;2.40;;
10467;SDS011;5281;48.878;9.394;2023-06-10T13:41:08;2.88;;;2.33;;
10467;SDS011;5281;48.878;9.394;2023-06-10T13:43:35;3.17;;;2.78;;
10467;SDS011;5281;48.878;9.394;2023-06-10T13:46:01;4.35;;;3.00;;
10467;SDS011;5281;48.878;9.394;2023-06-10T13:48:28;2.90;;;2.70;;
10467;SDS011;5281;48.878;9.394;2023-06-10T13:50:56;3.67;;;3.30;;
10467;SDS011;5281;48.878;9.394;2023-06-10T13:53:22;3.75;;;2.70;;
10467;SDS011;5281;48.878;9.394;2023-06-10T13:55:49;3.50;;;2.80;;
10467;SDS011;5281;48.878;9.394;2023-06-10T13:58:17;4.15;;;2.85;;
10467;SDS011;5281;48.878;9.394;2023-06-10T14:00:44;3.00;;;2.80;;
10467;SDS011;5281;48.878;9.394;2023-06-10T14:03:12;3.08;;;2.83;;
10467;SDS011;5281;48.878;9.394;2023-06-10T14:05:39;3.92;;;3.05;;
10467;SDS011;5281;48.878;9.394;2023-06-10T14:08:05;4.03;;;2.85;;
10467;SDS011;5281;48.878;9.394;2023-06-10T14:10:32;4.35;;;2.80;;
10467;SDS011;5281;48.878;9.394;2023-06-10T14:12:59;4.25;;;3.28;;
10467;SDS011;5281;48.878;9.394;2023-06-10T14:15:27;3.67;;;3.13;;
10467;SDS011;5281;48.878;9.394;2023-06-10T14:17:55;3.70;;;2.78;;
10467;SDS011;5281;48.878;9.394;2023-06-10T14:20:22;3.30;;;3.00;;
10467;SDS011;5281;48.878;9.394;2023-06-10T14:22:50;3.25;;;2.95;;
10467;SDS011;5281;48.878;9.394;2023-06-10T14:25:17;3.47;;;3.17;;
10467;SDS011;5281;48.878;9.394;2023-06-10T14:27:44;3.53;;;3.22;;
10467;SDS011;5281;48.878;9.394;2023-06-10T14:30:12;3.78;;;3.03;;
10467;SDS011;5281;48.878;9.394;2023-06-10T14:32:40;3.47;;;3.00;;
10467;SDS011;5281;48.878;9.394;2023-06-10T14:35:07;3.50;;;3.20;;
10467;SDS011;5281;48.878;9.394;2023-06-10T14:37:34;3.60;;;3.30;;
10467;SDS011;5281;48.878;9.394;2023-06-10T14:40:01;3.35;;;3.05;;
10467;SDS011;5281;48.878;9.394;2023-06-10T14:42:29;3.33;;;3.03;;
10467;SDS011;5281;48.878;9.394;2023-06-10T14:44:57;3.15;;;2.85;;
10467;SDS011;5281;48.878;9.394;2023-06-10T14:47:23;3.72;;;2.85;;
10467;SDS011;5281;48.878;9.394;2023-06-10T14:49:52;2.67;;;2.47;;
10467;SDS011;5281;48.878;9.394;2023-06-10T14:52:19;5.47;;;3.20;;
10467;SDS011;5281;48.878;9.394;2023-06-10T14:54:45;3.53;;;3.10;;
10467;SDS011;5281;48.878;9.394;2023-06-10T14:57:12;3.20;;;2.90;;
10467;SDS011;5281;48.878;9.394;2023-06-10T14:59:39;3.30;;;3.00;;
10467;SDS011;5281;48.878;9.394;2023-06-10T15:02:05;3.30;;;2.95;;
10467;SDS011;5281;48.878;9.394;2023-06-10T15:04:32;2.58;;;2.38;;
10467;SDS011;5281;48.878;9.394;2023-06-10T15:07:01;3.05;;;2.60;;